sensor_id;sensor_type;location;lat;lon;timestamp;pressure;altitude;pressure_sealevel;temperature;humidity
78932;BME280;68331;53.362;55.932;2023-04-30T00:01:20;100174.22;;;11.26;63.51
78932;BME280;68331;53.362;55.932;2023-04-30T00:03:46;100175.22;;;11.23;63.47
78932;BME280;68331;53.362;55.932;2023-04-30T00:06:12;100178.03;;;11.17;63.38
78932;BME280;68331;53.362;55.932;2023-04-30T00:08:38;100180.75;;;11.14;63.39
78932;BME280;68331;53.362;55.932;2023-04-30T00:11:05;100177.34;;;11.10;63.53
78932;BME280;68331;53.362;55.932;2023-04-30T00:13:30;100177.22;;;11.13;63.38
78932;BME280;68331;53.362;55.932;2023-04-30T00:15:56;100180.75;;;11.14;63.60
78932;BME280;68331;53.362;55.932;2023-04-30T00:18:22;100176.19;;;11.19;63.21
78932;BME280;68331;53.362;55.932;2023-04-30T00:20:48;100190.22;;;11.21;62.91
78932;BME280;68331;53.362;55.932;2023-04-30T00:23:16;100179.69;;;11.20;62.93
78932;BME280;68331;53.362;55.932;2023-04-30T00:25:42;100191.16;;;11.20;62.88
78932;BME280;68331;53.362;55.932;2023-04-30T00:28:08;100187.75;;;11.15;62.76
78932;BME280;68331;53.362;55.932;2023-04-30T00:30:34;100194.75;;;11.17;62.86
78932;BME280;68331;53.362;55.932;2023-04-30T00:33:00;100191.25;;;11.17;62.72
78932;BME280;68331;53.362;55.932;2023-04-30T00:35:27;100188.59;;;11.17;62.52
78932;BME280;68331;53.362;55.932;2023-04-30T00:37:53;100185.91;;;11.18;62.60
78932;BME280;68331;53.362;55.932;2023-04-30T00:40:19;100195.59;;;11.18;62.82
78932;BME280;68331;53.362;55.932;2023-04-30T00:42:46;100199.19;;;11.15;62.48
78932;BME280;68331;53.362;55.932;2023-04-30T00:45:13;100187.06;;;11.08;62.15
78932;BME280;68331;53.362;55.932;2023-04-30T00:47:40;100185.28;;;11.10;62.30
78932;BME280;68331;53.362;55.932;2023-04-30T00:50:06;100194.94;;;11.10;62.30
78932;BME280;68331;53.362;55.932;2023-04-30T00:52:32;100190.72;;;11.04;62.52
78932;BME280;68331;53.362;55.932;2023-04-30T00:54:58;100203.94;;;11.03;62.47
78932;BME280;68331;53.362;55.932;2023-04-30T00:57:25;100197.81;;;11.02;62.86
78932;BME280;68331;53.362;55.932;2023-04-30T00:59:52;100197.03;;;10.99;62.77
78932;BME280;68331;53.362;55.932;2023-04-30T01:02:18;100201.47;;;10.97;62.76
78932;BME280;68331;53.362;55.932;2023-04-30T01:04:45;100204.34;;;10.89;62.74
78932;BME280;68331;53.362;55.932;2023-04-30T01:07:11;100212.19;;;10.92;62.89
78932;BME280;68331;53.362;55.932;2023-04-30T01:09:38;100211.25;;;10.93;62.71
78932;BME280;68331;53.362;55.932;2023-04-30T01:12:12;100216.31;;;11.01;62.73
78932;BME280;68331;53.362;55.932;2023-04-30T01:18:45;100209.03;;;11.10;62.59
78932;BME280;68331;53.362;55.932;2023-04-30T01:20:42;100213.13;;;11.21;62.20
78932;BME280;68331;53.362;55.932;2023-04-30T01:28:39;100222.34;;;11.37;61.73
78932;BME280;68331;53.362;55.932;2023-04-30T01:31:14;100223.13;;;11.40;61.77
78932;BME280;68331;53.362;55.932;2023-04-30T01:33:41;100223.97;;;11.43;61.92
78932;BME280;68331;53.362;55.932;2023-04-30T01:36:09;100229.19;;;11.44;61.92
78932;BME280;68331;53.362;55.932;2023-04-30T01:39:14;100234.22;;;11.52;61.76
78932;BME280;68331;53.362;55.932;2023-04-30T01:41:56;100237.59;;;11.58;61.55
78932;BME280;68331;53.362;55.932;2023-04-30T01:44:42;100240.75;;;11.70;61.22
78932;BME280;68331;53.362;55.932;2023-04-30T01:52:39;100232.16;;;11.93;60.90
78932;BME280;68331;53.362;55.932;2023-04-30T01:55:07;100234.50;;;12.02;60.54
78932;BME280;68331;53.362;55.932;2023-04-30T01:57:39;100236.84;;;12.11;60.85
78932;BME280;68331;53.362;55.932;2023-04-30T02:00:07;100233.00;;;12.21;60.34
78932;BME280;68331;53.362;55.932;2023-04-30T02:02:39;100239.72;;;12.31;60.32
78932;BME280;68331;53.362;55.932;2023-04-30T02:05:06;100244.56;;;12.45;59.91
78932;BME280;68331;53.362;55.932;2023-04-30T02:07:43;100242.28;;;12.61;59.68
78932;BME280;68331;53.362;55.932;2023-04-30T02:10:10;100254.75;;;12.83;59.05
78932;BME280;68331;53.362;55.932;2023-04-30T02:12:41;100247.94;;;13.02;58.27
78932;BME280;68331;53.362;55.932;2023-04-30T02:15:07;100254.22;;;13.24;57.12
78932;BME280;68331;53.362;55.932;2023-04-30T02:17:36;100245.47;;;13.46;56.51
78932;BME280;68331;53.362;55.932;2023-04-30T02:20:03;100258.66;;;13.71;54.77
78932;BME280;68331;53.362;55.932;2023-04-30T02:22:31;100257.88;;;13.91;53.14
78932;BME280;68331;53.362;55.932;2023-04-30T02:24:57;100257.53;;;14.00;52.39
78932;BME280;68331;53.362;55.932;2023-04-30T02:27:24;100261.38;;;14.15;51.30
78932;BME280;68331;53.362;55.932;2023-04-30T02:29:51;100267.06;;;14.28;50.62
78932;BME280;68331;53.362;55.932;2023-04-30T02:32:17;100265.56;;;14.42;49.91
78932;BME280;68331;53.362;55.932;2023-04-30T02:34:44;100267.72;;;14.55;49.59
78932;BME280;68331;53.362;55.932;2023-04-30T02:37:10;100256.47;;;14.70;48.71
78932;BME280;68331;53.362;55.932;2023-04-30T02:39:36;100257.53;;;14.86;48.41
78932;BME280;68331;53.362;55.932;2023-04-30T02:42:02;100265.94;;;14.98;47.59
78932;BME280;68331;53.362;55.932;2023-04-30T02:44:29;100263.72;;;15.07;47.43
78932;BME280;68331;53.362;55.932;2023-04-30T02:46:55;100262.22;;;15.22;46.85
78932;BME280;68331;53.362;55.932;2023-04-30T02:49:22;100262.25;;;15.41;46.40
78932;BME280;68331;53.362;55.932;2023-04-30T02:51:48;100273.88;;;15.78;45.75
78932;BME280;68331;53.362;55.932;2023-04-30T02:54:14;100263.09;;;16.00;45.45
78932;BME280;68331;53.362;55.932;2023-04-30T02:56:41;100259.00;;;16.12;44.97
78932;BME280;68331;53.362;55.932;2023-04-30T02:59:08;100260.88;;;16.27;44.28
78932;BME280;68331;53.362;55.932;2023-04-30T03:01:34;100260.38;;;16.38;43.58
78932;BME280;68331;53.362;55.932;2023-04-30T03:04:00;100254.91;;;16.41;43.16
78932;BME280;68331;53.362;55.932;2023-04-30T03:06:28;100251.00;;;16.65;42.52
78932;BME280;68331;53.362;55.932;2023-04-30T03:08:56;100264.41;;;16.64;42.64
78932;BME280;68331;53.362;55.932;2023-04-30T03:11:22;100263.41;;;16.66;42.24
78932;BME280;68331;53.362;55.932;2023-04-30T03:13:48;100253.59;;;16.67;42.15
78932;BME280;68331;53.362;55.932;2023-04-30T03:16:18;100260.59;;;17.22;40.79
78932;BME280;68331;53.362;55.932;2023-04-30T03:18:45;100247.47;;;17.83;39.69
78932;BME280;68331;53.362;55.932;2023-04-30T03:21:12;100239.56;;;18.29;38.62
78932;BME280;68331;53.362;55.932;2023-04-30T03:23:38;100240.94;;;18.67;37.98
78932;BME280;68331;53.362;55.932;2023-04-30T03:26:04;100248.06;;;19.26;36.90
78932;BME280;68331;53.362;55.932;2023-04-30T03:28:31;100251.59;;;19.98;35.38
78932;BME280;68331;53.362;55.932;2023-04-30T03:30:57;100257.03;;;19.25;36.14
78932;BME280;68331;53.362;55.932;2023-04-30T03:33:24;100251.25;;;18.43;37.86
78932;BME280;68331;53.362;55.932;2023-04-30T03:35:49;100253.25;;;17.92;38.61
78932;BME280;68331;53.362;55.932;2023-04-30T03:38:16;100254.72;;;17.81;38.96
78932;BME280;68331;53.362;55.932;2023-04-30T03:40:42;100250.16;;;19.21;36.71
78932;BME280;68331;53.362;55.932;2023-04-30T03:43:12;100250.75;;;20.92;33.69
78932;BME280;68331;53.362;55.932;2023-04-30T03:45:38;100241.81;;;21.94;31.22
78932;BME280;68331;53.362;55.932;2023-04-30T03:48:04;100249.09;;;22.04;30.85
78932;BME280;68331;53.362;55.932;2023-04-30T03:50:30;100248.84;;;22.20;30.49
78932;BME280;68331;53.362;55.932;2023-04-30T03:52:56;100244.25;;;22.46;29.79
78932;BME280;68331;53.362;55.932;2023-04-30T03:55:23;100242.06;;;23.44;28.65
78932;BME280;68331;53.362;55.932;2023-04-30T03:57:49;100238.03;;;23.50;28.78
78932;BME280;68331;53.362;55.932;2023-04-30T04:00:16;100241.22;;;23.44;28.60
78932;BME280;68331;53.362;55.932;2023-04-30T04:02:47;100239.88;;;23.50;28.47
78932;BME280;68331;53.362;55.932;2023-04-30T04:05:13;100236.81;;;24.54;26.64
78932;BME280;68331;53.362;55.932;2023-04-30T04:07:39;100238.19;;;25.22;25.62
78932;BME280;68331;53.362;55.932;2023-04-30T04:10:06;100231.66;;;26.75;23.61
78932;BME280;68331;53.362;55.932;2023-04-30T04:12:32;100234.06;;;28.19;21.91
78932;BME280;68331;53.362;55.932;2023-04-30T04:14:58;100229.78;;;27.99;22.13
78932;BME280;68331;53.362;55.932;2023-04-30T04:17:24;100226.19;;;28.62;21.74
78932;BME280;68331;53.362;55.932;2023-04-30T04:19:51;100226.38;;;28.15;22.17
78932;BME280;68331;53.362;55.932;2023-04-30T04:22:18;100238.59;;;28.64;21.30
78932;BME280;68331;53.362;55.932;2023-04-30T04:24:44;100232.78;;;29.21;20.91
78932;BME280;68331;53.362;55.932;2023-04-30T04:27:17;100244.84;;;28.01;21.64
78932;BME280;68331;53.362;55.932;2023-04-30T04:29:44;100236.75;;;26.30;23.40
78932;BME280;68331;53.362;55.932;2023-04-30T04:32:11;100244.97;;;24.96;25.37
78932;BME280;68331;53.362;55.932;2023-04-30T04:34:41;100239.44;;;24.22;26.68
78932;BME280;68331;53.362;55.932;2023-04-30T04:37:09;100245.41;;;23.93;26.87
78932;BME280;68331;53.362;55.932;2023-04-30T04:39:36;100241.84;;;23.93;27.19
78932;BME280;68331;53.362;55.932;2023-04-30T04:42:03;100243.78;;;23.34;27.93
78932;BME280;68331;53.362;55.932;2023-04-30T04:44:32;100237.53;;;23.23;28.24
78932;BME280;68331;53.362;55.932;2023-04-30T04:46:59;100241.13;;;23.90;27.05
78932;BME280;68331;53.362;55.932;2023-04-30T04:49:26;100246.78;;;24.74;25.93
78932;BME280;68331;53.362;55.932;2023-04-30T04:51:53;100237.59;;;24.45;26.18
78932;BME280;68331;53.362;55.932;2023-04-30T04:54:19;100229.59;;;24.00;26.63
78932;BME280;68331;53.362;55.932;2023-04-30T04:56:46;100221.25;;;24.46;26.12
78932;BME280;68331;53.362;55.932;2023-04-30T04:59:16;100229.34;;;24.99;25.80
78932;BME280;68331;53.362;55.932;2023-04-30T05:01:43;100218.94;;;26.08;24.13
78932;BME280;68331;53.362;55.932;2023-04-30T05:04:10;100224.78;;;27.10;22.80
78932;BME280;68331;53.362;55.932;2023-04-30T05:06:38;100219.53;;;26.31;23.55
78932;BME280;68331;53.362;55.932;2023-04-30T05:09:06;100225.19;;;26.18;23.72
78932;BME280;68331;53.362;55.932;2023-04-30T05:11:35;100221.94;;;26.92;22.61
78932;BME280;68331;53.362;55.932;2023-04-30T05:14:01;100223.81;;;26.92;22.51
78932;BME280;68331;53.362;55.932;2023-04-30T05:16:27;100224.50;;;26.45;23.56
78932;BME280;68331;53.362;55.932;2023-04-30T05:18:55;100218.25;;;26.74;22.65
78932;BME280;68331;53.362;55.932;2023-04-30T05:21:21;100226.34;;;27.12;22.28
78932;BME280;68331;53.362;55.932;2023-04-30T05:23:48;100225.84;;;27.46;22.14
78932;BME280;68331;53.362;55.932;2023-04-30T05:26:14;100228.53;;;27.46;21.82
78932;BME280;68331;53.362;55.932;2023-04-30T05:28:40;100218.25;;;27.50;22.10
78932;BME280;68331;53.362;55.932;2023-04-30T05:31:07;100219.50;;;28.74;19.86
78932;BME280;68331;53.362;55.932;2023-04-30T05:33:33;100208.84;;;28.98;19.30
78932;BME280;68331;53.362;55.932;2023-04-30T05:36:01;100215.72;;;28.03;20.52
78932;BME280;68331;53.362;55.932;2023-04-30T05:38:27;100211.72;;;27.43;21.40
78932;BME280;68331;53.362;55.932;2023-04-30T05:40:53;100208.97;;;27.52;20.94
78932;BME280;68331;53.362;55.932;2023-04-30T05:43:19;100205.50;;;29.31;19.17
78932;BME280;68331;53.362;55.932;2023-04-30T05:45:45;100205.59;;;31.14;17.33
78932;BME280;68331;53.362;55.932;2023-04-30T05:48:11;100203.88;;;32.16;17.04
78932;BME280;68331;53.362;55.932;2023-04-30T05:50:37;100205.50;;;32.02;16.56
78932;BME280;68331;53.362;55.932;2023-04-30T05:53:03;100204.69;;;31.54;16.49
78932;BME280;68331;53.362;55.932;2023-04-30T05:55:29;100201.31;;;31.91;16.37
78932;BME280;68331;53.362;55.932;2023-04-30T05:57:56;100199.00;;;32.57;15.83
78932;BME280;68331;53.362;55.932;2023-04-30T06:00:22;100184.56;;;34.20;13.85
78932;BME280;68331;53.362;55.932;2023-04-30T06:02:48;100199.50;;;36.07;12.83
78932;BME280;68331;53.362;55.932;2023-04-30T06:05:14;100201.19;;;37.75;11.58
78932;BME280;68331;53.362;55.932;2023-04-30T06:07:40;100194.19;;;38.87;11.11
78932;BME280;68331;53.362;55.932;2023-04-30T06:10:06;100191.28;;;39.99;9.75
78932;BME280;68331;53.362;55.932;2023-04-30T06:12:34;100197.13;;;39.36;10.23
78932;BME280;68331;53.362;55.932;2023-04-30T06:15:00;100196.09;;;38.61;10.73
78932;BME280;68331;53.362;55.932;2023-04-30T06:17:26;100191.34;;;39.19;10.37
78932;BME280;68331;53.362;55.932;2023-04-30T06:19:52;100192.59;;;39.96;10.18
78932;BME280;68331;53.362;55.932;2023-04-30T06:22:18;100186.41;;;40.43;9.58
78932;BME280;68331;53.362;55.932;2023-04-30T06:24:44;100184.38;;;41.27;8.75
78932;BME280;68331;53.362;55.932;2023-04-30T06:27:10;100186.38;;;41.44;9.20
78932;BME280;68331;53.362;55.932;2023-04-30T06:29:36;100184.88;;;41.88;8.60
78932;BME280;68331;53.362;55.932;2023-04-30T06:32:02;100175.06;;;41.57;8.71
78932;BME280;68331;53.362;55.932;2023-04-30T06:34:28;100170.97;;;40.77;9.42
78932;BME280;68331;53.362;55.932;2023-04-30T06:36:54;100166.88;;;39.96;10.01
78932;BME280;68331;53.362;55.932;2023-04-30T06:39:21;100171.06;;;40.17;9.64
78932;BME280;68331;53.362;55.932;2023-04-30T06:41:47;100179.78;;;40.32;9.66
78932;BME280;68331;53.362;55.932;2023-04-30T06:44:14;100170.81;;;38.90;10.11
78932;BME280;68331;53.362;55.932;2023-04-30T06:46:40;100162.19;;;38.54;10.70
78932;BME280;68331;53.362;55.932;2023-04-30T06:49:06;100161.13;;;39.24;9.66
78932;BME280;68331;53.362;55.932;2023-04-30T06:51:32;100166.53;;;38.94;10.33
78932;BME280;68331;53.362;55.932;2023-04-30T06:53:58;100157.47;;;38.61;10.72
78932;BME280;68331;53.362;55.932;2023-04-30T06:56:25;100156.22;;;38.57;10.59
78932;BME280;68331;53.362;55.932;2023-04-30T06:58:51;100164.53;;;36.83;11.66
78932;BME280;68331;53.362;55.932;2023-04-30T07:01:17;100158.09;;;34.06;13.68
78932;BME280;68331;53.362;55.932;2023-04-30T07:03:43;100158.16;;;32.18;14.86
78932;BME280;68331;53.362;55.932;2023-04-30T07:06:09;100152.84;;;30.90;16.72
78932;BME280;68331;53.362;55.932;2023-04-30T07:08:35;100148.63;;;30.79;17.61
78932;BME280;68331;53.362;55.932;2023-04-30T07:11:01;100149.78;;;30.20;17.98
78932;BME280;68331;53.362;55.932;2023-04-30T07:13:27;100152.25;;;28.94;19.14
78932;BME280;68331;53.362;55.932;2023-04-30T07:15:53;100144.59;;;28.27;19.87
78932;BME280;68331;53.362;55.932;2023-04-30T07:18:19;100144.19;;;28.04;20.25
78932;BME280;68331;53.362;55.932;2023-04-30T07:20:45;100152.81;;;27.72;20.56
78932;BME280;68331;53.362;55.932;2023-04-30T07:23:11;100147.31;;;27.64;21.22
78932;BME280;68331;53.362;55.932;2023-04-30T07:25:37;100149.06;;;27.55;20.61
78932;BME280;68331;53.362;55.932;2023-04-30T07:28:03;100152.19;;;27.61;20.87
78932;BME280;68331;53.362;55.932;2023-04-30T07:30:29;100131.88;;;27.37;20.58
78932;BME280;68331;53.362;55.932;2023-04-30T07:32:55;100140.25;;;27.71;20.44
78932;BME280;68331;53.362;55.932;2023-04-30T07:35:21;100136.22;;;27.57;20.91
78932;BME280;68331;53.362;55.932;2023-04-30T07:37:47;100130.38;;;27.52;20.87
78932;BME280;68331;53.362;55.932;2023-04-30T07:40:13;100138.91;;;27.57;21.21
78932;BME280;68331;53.362;55.932;2023-04-30T07:42:40;100132.00;;;27.45;20.83
78932;BME280;68331;53.362;55.932;2023-04-30T07:45:07;100129.06;;;27.56;20.93
78932;BME280;68331;53.362;55.932;2023-04-30T07:47:33;100118.47;;;27.63;21.05
78932;BME280;68331;53.362;55.932;2023-04-30T07:49:59;100127.97;;;27.49;20.73
78932;BME280;68331;53.362;55.932;2023-04-30T07:52:25;100133.91;;;27.35;20.85
78932;BME280;68331;53.362;55.932;2023-04-30T07:54:51;100099.41;;;27.55;20.93
78932;BME280;68331;53.362;55.932;2023-04-30T07:57:17;100109.59;;;27.71;21.36
78932;BME280;68331;53.362;55.932;2023-04-30T07:59:43;100101.97;;;27.56;20.82
78932;BME280;68331;53.362;55.932;2023-04-30T08:02:10;100102.13;;;27.55;20.85
78932;BME280;68331;53.362;55.932;2023-04-30T08:04:36;100104.00;;;27.72;20.55
78932;BME280;68331;53.362;55.932;2023-04-30T08:07:02;100110.13;;;27.74;19.78
78932;BME280;68331;53.362;55.932;2023-04-30T08:09:29;100091.28;;;27.55;19.69
78932;BME280;68331;53.362;55.932;2023-04-30T08:11:55;100098.50;;;27.64;19.93
78932;BME280;68331;53.362;55.932;2023-04-30T08:14:21;100100.25;;;27.83;19.67
78932;BME280;68331;53.362;55.932;2023-04-30T08:16:47;100093.22;;;27.63;19.72
78932;BME280;68331;53.362;55.932;2023-04-30T08:19:13;100091.31;;;27.73;19.44
78932;BME280;68331;53.362;55.932;2023-04-30T08:21:39;100086.09;;;27.89;19.22
78932;BME280;68331;53.362;55.932;2023-04-30T08:24:06;100087.06;;;27.88;19.65
78932;BME280;68331;53.362;55.932;2023-04-30T08:26:32;100087.31;;;28.13;19.34
78932;BME280;68331;53.362;55.932;2023-04-30T08:28:58;100081.31;;;28.27;19.14
78932;BME280;68331;53.362;55.932;2023-04-30T08:31:24;100079.00;;;28.32;19.53
78932;BME280;68331;53.362;55.932;2023-04-30T08:33:50;100070.47;;;28.27;19.90
78932;BME280;68331;53.362;55.932;2023-04-30T08:36:16;100065.63;;;28.13;19.13
78932;BME280;68331;53.362;55.932;2023-04-30T08:38:42;100066.00;;;28.18;19.21
78932;BME280;68331;53.362;55.932;2023-04-30T08:41:11;100073.75;;;28.13;19.64
78932;BME280;68331;53.362;55.932;2023-04-30T08:43:39;100063.13;;;28.01;19.94
78932;BME280;68331;53.362;55.932;2023-04-30T08:46:06;100063.84;;;28.03;19.88
78932;BME280;68331;53.362;55.932;2023-04-30T08:48:32;100067.09;;;27.89;20.07
78932;BME280;68331;53.362;55.932;2023-04-30T08:50:59;100055.88;;;28.02;19.48
78932;BME280;68331;53.362;55.932;2023-04-30T08:53:26;100047.91;;;28.26;19.33
78932;BME280;68331;53.362;55.932;2023-04-30T08:55:52;100036.88;;;28.46;19.25
78932;BME280;68331;53.362;55.932;2023-04-30T08:58:18;100056.16;;;28.61;19.96
78932;BME280;68331;53.362;55.932;2023-04-30T09:00:44;100047.94;;;28.52;19.28
78932;BME280;68331;53.362;55.932;2023-04-30T09:03:10;100056.91;;;28.45;19.55
78932;BME280;68331;53.362;55.932;2023-04-30T09:05:36;100054.50;;;28.42;19.39
78932;BME280;68331;53.362;55.932;2023-04-30T09:08:07;100043.00;;;28.48;19.32
78932;BME280;68331;53.362;55.932;2023-04-30T09:10:34;100044.56;;;28.50;19.94
78932;BME280;68331;53.362;55.932;2023-04-30T09:13:05;100045.47;;;28.59;19.83
78932;BME280;68331;53.362;55.932;2023-04-30T09:15:33;100045.38;;;28.69;19.51
78932;BME280;68331;53.362;55.932;2023-04-30T09:18:18;100043.97;;;28.65;19.24
78932;BME280;68331;53.362;55.932;2023-04-30T09:20:59;100049.06;;;28.68;19.39
78932;BME280;68331;53.362;55.932;2023-04-30T09:23:31;100034.06;;;28.56;19.69
78932;BME280;68331;53.362;55.932;2023-04-30T09:25:57;100030.81;;;28.52;19.62
78932;BME280;68331;53.362;55.932;2023-04-30T09:28:23;100037.84;;;28.63;19.46
78932;BME280;68331;53.362;55.932;2023-04-30T09:30:51;100039.50;;;28.82;19.69
78932;BME280;68331;53.362;55.932;2023-04-30T09:33:18;100018.63;;;28.90;19.20
78932;BME280;68331;53.362;55.932;2023-04-30T09:35:44;100033.00;;;29.01;19.10
78932;BME280;68331;53.362;55.932;2023-04-30T09:38:42;100026.97;;;28.97;19.06
78932;BME280;68331;53.362;55.932;2023-04-30T09:41:26;100032.06;;;28.92;19.05
78932;BME280;68331;53.362;55.932;2023-04-30T09:43:54;100026.75;;;28.82;18.91
78932;BME280;68331;53.362;55.932;2023-04-30T09:46:21;100028.13;;;28.86;19.42
78932;BME280;68331;53.362;55.932;2023-04-30T09:48:59;100024.66;;;29.02;18.63
78932;BME280;68331;53.362;55.932;2023-04-30T09:51:27;100020.38;;;29.00;18.93
78932;BME280;68331;53.362;55.932;2023-04-30T09:53:53;100024.34;;;29.05;18.89
78932;BME280;68331;53.362;55.932;2023-04-30T09:56:25;100017.63;;;28.91;18.75
78932;BME280;68331;53.362;55.932;2023-04-30T09:58:54;100012.97;;;28.76;19.01
78932;BME280;68331;53.362;55.932;2023-04-30T10:01:26;100025.28;;;28.62;19.29
78932;BME280;68331;53.362;55.932;2023-04-30T10:03:52;100012.72;;;28.61;19.06
78932;BME280;68331;53.362;55.932;2023-04-30T10:06:22;100008.13;;;28.61;18.94
78932;BME280;68331;53.362;55.932;2023-04-30T10:08:56;100002.97;;;28.76;18.97
78932;BME280;68331;53.362;55.932;2023-04-30T10:11:27;100004.00;;;28.75;18.90
78932;BME280;68331;53.362;55.932;2023-04-30T10:13:59;100001.91;;;28.69;18.89
78932;BME280;68331;53.362;55.932;2023-04-30T10:19:00;100001.34;;;28.39;19.53
78932;BME280;68331;53.362;55.932;2023-04-30T10:21:28;99993.34;;;28.56;19.11
78932;BME280;68331;53.362;55.932;2023-04-30T10:23:56;99994.75;;;28.68;19.27
78932;BME280;68331;53.362;55.932;2023-04-30T10:26:23;100000.44;;;28.83;19.12
78932;BME280;68331;53.362;55.932;2023-04-30T10:28:50;99994.03;;;28.92;18.83
78932;BME280;68331;53.362;55.932;2023-04-30T10:31:19;99984.72;;;28.94;18.45
78932;BME280;68331;53.362;55.932;2023-04-30T10:36:42;99988.19;;;29.05;18.18
78932;BME280;68331;53.362;55.932;2023-04-30T10:39:10;99993.84;;;28.93;18.49
78932;BME280;68331;53.362;55.932;2023-04-30T10:41:38;99990.41;;;28.75;18.92
78932;BME280;68331;53.362;55.932;2023-04-30T10:44:04;99994.41;;;28.63;18.86
78932;BME280;68331;53.362;55.932;2023-04-30T10:46:35;99981.50;;;28.65;18.76
78932;BME280;68331;53.362;55.932;2023-04-30T10:49:01;99991.72;;;28.71;18.94
78932;BME280;68331;53.362;55.932;2023-04-30T10:51:46;99984.66;;;28.78;19.15
78932;BME280;68331;53.362;55.932;2023-04-30T10:54:24;99989.13;;;28.61;18.93
78932;BME280;68331;53.362;55.932;2023-04-30T10:56:50;99985.16;;;28.47;18.40
78932;BME280;68331;53.362;55.932;2023-04-30T10:59:17;99967.53;;;28.51;18.42
78932;BME280;68331;53.362;55.932;2023-04-30T11:01:55;99977.69;;;28.76;18.18
78932;BME280;68331;53.362;55.932;2023-04-30T11:04:21;99969.06;;;28.88;18.43
78932;BME280;68331;53.362;55.932;2023-04-30T11:09:19;99973.69;;;28.62;18.75
78932;BME280;68331;53.362;55.932;2023-04-30T11:12:04;99968.47;;;28.68;18.95
78932;BME280;68331;53.362;55.932;2023-04-30T11:14:39;99968.13;;;28.37;19.26
78932;BME280;68331;53.362;55.932;2023-04-30T11:17:06;99963.66;;;28.28;19.63
78932;BME280;68331;53.362;55.932;2023-04-30T11:19:32;99965.03;;;28.32;19.27
78932;BME280;68331;53.362;55.932;2023-04-30T11:24:51;99965.41;;;28.63;19.03
78932;BME280;68331;53.362;55.932;2023-04-30T11:27:22;99947.38;;;28.54;18.95
78932;BME280;68331;53.362;55.932;2023-04-30T11:29:49;99952.91;;;28.44;19.23
78932;BME280;68331;53.362;55.932;2023-04-30T11:32:20;99946.41;;;28.37;19.29
78932;BME280;68331;53.362;55.932;2023-04-30T11:34:47;99946.66;;;28.26;19.03
78932;BME280;68331;53.362;55.932;2023-04-30T11:37:30;99944.53;;;28.38;18.85
78932;BME280;68331;53.362;55.932;2023-04-30T11:40:02;99948.66;;;28.42;19.46
78932;BME280;68331;53.362;55.932;2023-04-30T11:42:30;99938.94;;;28.39;19.08
78932;BME280;68331;53.362;55.932;2023-04-30T11:45:17;99951.13;;;28.61;19.47
78932;BME280;68331;53.362;55.932;2023-04-30T11:47:47;99950.91;;;28.46;19.04
78932;BME280;68331;53.362;55.932;2023-04-30T11:50:21;99945.94;;;28.42;18.93
78932;BME280;68331;53.362;55.932;2023-04-30T11:52:55;99937.88;;;28.58;18.93
78932;BME280;68331;53.362;55.932;2023-04-30T11:55:24;99936.06;;;28.67;19.12
78932;BME280;68331;53.362;55.932;2023-04-30T11:57:51;99940.44;;;28.60;18.76
78932;BME280;68331;53.362;55.932;2023-04-30T12:00:21;99941.63;;;28.65;18.91
78932;BME280;68331;53.362;55.932;2023-04-30T12:02:48;99934.84;;;28.61;18.36
78932;BME280;68331;53.362;55.932;2023-04-30T12:05:16;99944.78;;;28.52;18.99
78932;BME280;68331;53.362;55.932;2023-04-30T12:07:50;99943.59;;;28.47;18.51
78932;BME280;68331;53.362;55.932;2023-04-30T12:10:20;99921.34;;;28.17;19.34
78932;BME280;68331;53.362;55.932;2023-04-30T12:12:48;99928.28;;;28.12;19.61
78932;BME280;68331;53.362;55.932;2023-04-30T12:15:16;99925.81;;;28.00;19.80
78932;BME280;68331;53.362;55.932;2023-04-30T12:17:43;99936.34;;;27.77;19.81
78932;BME280;68331;53.362;55.932;2023-04-30T12:20:13;99933.84;;;27.84;19.74
78932;BME280;68331;53.362;55.932;2023-04-30T12:22:41;99928.06;;;28.05;19.18
78932;BME280;68331;53.362;55.932;2023-04-30T12:25:12;99926.19;;;28.32;19.38
78932;BME280;68331;53.362;55.932;2023-04-30T12:27:40;99927.22;;;28.39;18.94
78932;BME280;68331;53.362;55.932;2023-04-30T12:30:07;99922.53;;;28.41;19.01
78932;BME280;68331;53.362;55.932;2023-04-30T12:35:04;99923.69;;;28.38;18.46
78932;BME280;68331;53.362;55.932;2023-04-30T12:37:31;99924.31;;;28.32;18.42
78932;BME280;68331;53.362;55.932;2023-04-30T12:39:57;99920.56;;;28.25;18.47
78932;BME280;68331;53.362;55.932;2023-04-30T12:42:25;99928.09;;;28.13;18.92
78932;BME280;68331;53.362;55.932;2023-04-30T12:44:57;99921.09;;;28.02;19.20
78932;BME280;68331;53.362;55.932;2023-04-30T12:47:24;99925.16;;;27.98;19.36
78932;BME280;68331;53.362;55.932;2023-04-30T12:49:50;99918.94;;;27.88;19.46
78932;BME280;68331;53.362;55.932;2023-04-30T12:52:16;99921.84;;;27.87;19.75
78932;BME280;68331;53.362;55.932;2023-04-30T12:54:42;99919.63;;;27.72;19.57
78932;BME280;68331;53.362;55.932;2023-04-30T12:57:09;99921.84;;;27.51;19.98
78932;BME280;68331;53.362;55.932;2023-04-30T12:59:39;99929.06;;;27.42;20.05
78932;BME280;68331;53.362;55.932;2023-04-30T13:02:25;99916.84;;;27.38;19.99
78932;BME280;68331;53.362;55.932;2023-04-30T13:04:52;99928.22;;;27.42;20.10
78932;BME280;68331;53.362;55.932;2023-04-30T13:07:19;99921.94;;;27.41;20.22
78932;BME280;68331;53.362;55.932;2023-04-30T13:09:45;99904.75;;;27.32;20.54
78932;BME280;68331;53.362;55.932;2023-04-30T13:12:11;99924.25;;;27.36;20.29
78932;BME280;68331;53.362;55.932;2023-04-30T13:14:37;99912.41;;;27.37;20.53